Wenden, Arizona
Current Conditions -  °F | °C
As of 2:35 PM on Saturday 22 Nov 2014 (Local Time) from KBXK Reporting Station
Clear Clear  
Wind Chill: 68°   Ceiling: Unl
Heat Index: 68°   Visibility: 10mi
Dew Point: 27°   Wind: 5mph
Humidity: 21%   Direction: 190°S
Pressure: 29.99"   Gusts: NA
Location:  33.82°N, 113.54°W
Report Text: KBXK 222135Z AUTO 19004KT 10SM CLR 20/M03 A2999 RMK AO1
Loading
Personal Weather Stations






























Interactive Weather Map New forecast layout! Learn more

10-Day Weather Forecast

Advertisements
Track Severe Weather on mobile